TimeEST,TemperatureF,Dew PointF,Humidity,Sea Level PressureIn,VisibilityMPH,Wind Direction,Wind SpeedMPH,Gust SpeedMPH,PrecipitationIn,Events,Conditions,WindDirDegrees,DateUTC
12:56 AM,37.0,28.9,73,29.79,-9999.0,SW,8.1,-,N/A,,Unknown,220,2013-11-15 05:56:00
1:56 AM,35.1,28.9,78,29.78,-9999.0,SSE,5.8,-,N/A,,Unknown,160,2013-11-15 06:56:00
2:56 AM,35.1,28.9,78,29.79,-9999.0,South,6.9,-,N/A,,Unknown,180,2013-11-15 07:56:00
3:56 AM,34.0,28.9,82,29.80,-9999.0,South,5.8,-,N/A,,Unknown,190,2013-11-15 08:56:00
4:56 AM,33.1,28.0,82,29.81,-9999.0,South,4.6,-,N/A,,Unknown,180,2013-11-15 09:56:00
5:56 AM,33.1,28.9,85,29.82,-9999.0,South,5.8,-,N/A,,Unknown,170,2013-11-15 10:56:00
6:56 AM,30.9,28.0,89,29.83,-9999.0,South,5.8,-,N/A,,Unknown,170,2013-11-15 11:56:00
7:56 AM,33.1,28.9,85,29.83,-9999.0,South,5.8,-,N/A,,Unknown,180,2013-11-15 12:56:00
8:56 AM,34.0,30.0,85,29.84,-9999.0,South,8.1,-,N/A,,Unknown,180,2013-11-15 13:56:00
9:56 AM,37.9,30.9,76,29.83,-9999.0,South,8.1,-,N/A,,Unknown,190,2013-11-15 14:56:00
10:56 AM,42.1,33.1,70,29.84,-9999.0,SSW,5.8,-,N/A,,Unknown,200,2013-11-15 15:56:00
11:56 AM,46.9,34.0,61,29.83,-9999.0,South,9.2,-,N/A,,Unknown,190,2013-11-15 16:56:00
12:56 PM,48.9,35.1,59,29.82,-9999.0,South,10.4,16.1,N/A,,Unknown,180,2013-11-15 17:56:00
1:56 PM,51.1,36.0,56,29.81,-9999.0,South,8.1,-,N/A,,Unknown,190,2013-11-15 18:56:00
2:56 PM,52.0,35.1,53,29.80,-9999.0,SSW,11.5,-,N/A,,Unknown,200,2013-11-15 19:56:00
3:56 PM,51.1,36.0,56,29.81,-9999.0,South,5.8,-,N/A,,Unknown,190,2013-11-15 20:56:00
4:56 PM,48.0,36.0,63,29.82,-9999.0,South,6.9,-,N/A,,Unknown,190,2013-11-15 21:56:00
5:56 PM,44.1,35.1,71,29.83,-9999.0,South,5.8,-,N/A,,Unknown,190,2013-11-15 22:56:00
6:56 PM,43.0,36.0,76,29.84,-9999.0,SSW,8.1,-,N/A,,Unknown,200,2013-11-15 23:56:00
7:56 PM,42.1,35.1,76,29.84,-9999.0,South,9.2,-,N/A,,Unknown,190,2013-11-16 00:56:00
8:56 PM,42.1,36.0,79,29.85,-9999.0,South,8.1,-,N/A,,Unknown,190,2013-11-16 01:56:00
9:56 PM,39.9,36.0,86,29.86,-9999.0,South,8.1,-,N/A,,Unknown,190,2013-11-16 02:56:00
10:56 PM,39.9,36.0,86,29.86,-9999.0,South,6.9,-,N/A,,Unknown,190,2013-11-16 03:56:00
11:56 PM,39.0,35.1,86,29.87,-9999.0,South,6.9,-,N/A,,Unknown,190,2013-11-16 04:56:00